Rossville, Ohio
Current Conditions -  °F | °C
As of 8:53 AM on Thursday 27 Nov 2014 (Local Time) from KHAO Reporting Station
Overcast Overcast  
Wind Chill: 22°   Ceiling: 3500
Heat Index: 31°   Visibility: 7mi
Dew Point: 24°   Wind: 10mph
Humidity: 76%   Direction: 310°NW
Pressure: 30.25"   Gusts: NA
Location:  39.4158°N, 84.6488°W
Report Text: KHAO 271353Z AUTO 31009KT 7SM OVC035 M01/M04 A3025 RMK AO2 SLP251 T10061044
Loading
Personal Weather Stations






























Interactive Weather Map New forecast layout! Learn more

10-Day Weather Forecast

Advertisements
Track Severe Weather on mobile